Aviation Digital Data Service (ADDS)

Output produced by METARs form (1918 UTC 18 July 2019)
found at http://aviationweather.gov/metar/data/
 
LSZH 181850Z 00000KT CAVOK 23/12 Q1014 NOSIG
LSZH 181820Z VRB01KT CAVOK 25/12 Q1014 NOSIG
TAF LSZH 181725Z 1818/1924 27005KT CAVOK TX28/1915Z TN14/1904Z 
     PROB30 
     TEMPO 1901/1904 SHRA SCT070TCU 
     BECMG 1908/1911 9999 FEW060TCU 
     PROB40 1911/1915 30008KT 
     BECMG 1917/1920 CAVOK
       
LFSB 181900Z 26006KT CAVOK 25/11 Q1013 NOSIG
LFSB 181830Z 28010KT CAVOK 26/11 Q1013 NOSIG
TAF LFSB 181700Z 1818/1918 28006KT CAVOK
       
LSZG 181850Z 20002KT CAVOK 23/14 Q1014 NOSIG
LSZG 181820Z 23001KT CAVOK 24/14 Q1014 NOSIG
TAF LSZG 181425Z 1815/1824 VRB03KT CAVOK 
     TEMPO 1815/1824 9999 FEW060 
     PROB30 1815/1817 06007KT
       
LSZB 181850Z VRB01KT 9999 SCT100 21/15 Q1015 NOSIG
LSZB 181820Z 26003KT 9999 SCT110 SCT120 BKN200 23/14 Q1014 NOSIG
TAF LSZB 181425Z 1815/1824 31005KT 9999 FEW085 SCT200
       
LSGG 181850Z 34004KT 280V030 CAVOK 25/11 Q1014 NOSIG
LSGG 181820Z 30004KT 270V350 CAVOK 26/12 Q1014 NOSIG
TAF LSGG 181725Z 1818/1924 VRB03KT CAVOK TX30/1915Z TN15/1904Z
       
LSZR 181850Z 10003KT CAVOK 23/15 Q1014 NOSIG RMK O
LSZR 181820Z 10003KT CAVOK 23/15 Q1014 NOSIG RMK O
TAF LSZR 181425Z 1815/1824 VRB03KT 9999 FEW060 SCT200
       
LSGS 181850Z AUTO 23006KT 190V270 CAVOK 25/09 Q1013
LSGS 181820Z AUTO 25009KT CAVOK 24/09 Q1013
TAF LSGS 181425Z 1815/1824 25008KT 9999 SCT090
       
LSZA 181850Z VRB02KT 9999 FEW125 22/16 Q1013 NOSIG
LSZA 181820Z VRB01KT 9999 FEW125 24/16 Q1013 NOSIG
TAF LSZA 181425Z 1815/1824 19006KT 9999 FEW050TCU SCT060 
     PROB30 
     TEMPO 1815/1817 SHRA
       
EDNY 181850Z VRB02KT CAVOK 23/10 Q1014
EDNY 181820Z VRB01KT CAVOK 23/12 Q1014
TAF EDNY 181700Z 1818/1918 21005KT CAVOK 
     BECMG 1818/1820 04003KT 
     BECMG 1908/1910 24005KT
       
EDDS 181850Z VRB02KT CAVOK 23/11 Q1013 NOSIG
EDDS 181820Z 33004KT CAVOK 25/10 Q1013 NOSIG
TAF EDDS 181700Z 1818/1918 30005KT 9999 FEW040 
     PROB30 
     TEMPO 1821/1901 SHRA SCT035CB 
     BECMG 1901/1903 VRB03KT 
     BECMG 1907/1910 26005KT 
     BECMG 1916/1918 34005KT
       
LOWI 181850Z VRB02KT 9999 BKN080 FEW080TCU 21/13 Q1014 NOSIG
LOWI 181820Z VRB01KT 9999 BKN080 FEW080TCU 22/11 Q1014 NOSIG
TAF LOWI 181715Z 1818/1918 08007KT 9999 BKN080 TX27/1914Z TN13/1904Z 
     BECMG 1819/1821 27003KT FEW080 
     BECMG 1909/1911 08006KT 
     TEMPO 1913/1918 08012KT SCT070 FEW070TCU
       
EDDM 181850Z 29002KT CAVOK 24/09 Q1014 NOSIG
EDDM 181820Z 29003KT CAVOK 25/09 Q1013 NOSIG
TAF EDDM 181700Z 1818/1924 25005KT CAVOK 
     TEMPO 1906/1911 19005KT 
     PROB30 
     TEMPO 1911/1918 SHRA BKN070TCU 
     BECMG 1917/1919 VRB03KT
       
LFMD 181900Z AUTO 17003KT CAVOK 24/19 Q1012 TEMPO BKN014
LFMD 181830Z AUTO 19003KT 150V210 CAVOK 25/19 Q1012 TEMPO BKN014
TAF LFMD 181400Z 1815/1915 15010KT 9999 FEW030 
     PROB30 
     TEMPO 1815/1816 FEW050CB 
     TEMPO 1818/1907 BKN014 
     BECMG 1819/1821 35005KT CAVOK 
     BECMG 1907/1909 15010KT
       
LFLL 181900Z 36008KT CAVOK 26/08 Q1014 NOSIG
LFLL 181830Z 35011KT CAVOK 27/08 Q1014 NOSIG
TAF LFLL 181700Z 1818/1924 34010KT CAVOK 
     BECMG 1820/1822 VRB02KT 
     BECMG 1907/1909 36005KT 
     BECMG 1922/1924 18010KT
       
LIMC 181850Z 10004KT CAVOK 23/18 Q1013 NOSIG
LIMC 181820Z VRB02KT CAVOK 23/18 Q1013 NOSIG
TAF LIMC 181700Z 1818/1924 VRB05KT 9999 SCT050 
     PROB30 
     TEMPO 1901/1905 TSRA
       
LFPB 181900Z AUTO 31007KT 270V340 9999 FEW042 OVC056 21/16 Q1013 TEMPO SCT040TCU
LFPB 181830Z AUTO 33008KT 9999 FEW036 BKN056 BKN068 22/16 Q1013 TEMPO SCT040TCU
TAF AMD LFPB 181857Z 1818/1918 30010KT CAVOK 
     PROB40 
     TEMPO 1819/1821 4500 -SHRA BKN014 SCT040TCU 
     BECMG 1902/1904 VRB03KT 
     BECMG 1908/1910 20006KT
       
LIPZ 181850Z 17002KT CAVOK 25/17 Q1012 NOSIG
LIPZ 181820Z 14003KT CAVOK 25/18 Q1012 NOSIG
TAF LIPZ 181700Z 1818/1924 VRB05KT 9999 FEW040 
     BECMG 1909/1911 16010KT 
     BECMG 1917/1919 VRB05KT